createdAt,value
2023-02-19T00:04:59.742Z,7.55
2023-02-19T00:10:02.118Z,7.58
2023-02-19T00:15:09.326Z,7.57
2023-02-19T00:20:11.787Z,7.53
2023-02-19T00:25:14.418Z,7.53
2023-02-19T00:30:19.691Z,7.47
2023-02-19T00:35:25.057Z,7.43
2023-02-19T00:40:27.465Z,7.41
2023-02-19T00:45:29.734Z,7.44
2023-02-19T00:50:31.751Z,7.49
2023-02-19T00:55:33.854Z,7.50
2023-02-19T01:00:35.903Z,7.53
2023-02-19T01:05:38.041Z,7.51
2023-02-19T01:10:40.582Z,7.50
2023-02-19T01:15:43.897Z,7.45
2023-02-19T01:20:48.822Z,7.48
2023-02-19T01:25:51.753Z,7.52
2023-02-19T01:30:53.978Z,7.51
2023-02-19T01:35:59.930Z,7.47
2023-02-19T01:41:05.135Z,7.45
2023-02-19T01:46:07.262Z,7.48
2023-02-19T01:51:13.045Z,7.47
2023-02-19T01:56:17.426Z,7.41
2023-02-19T02:01:19.729Z,7.44
2023-02-19T02:06:33.232Z,7.46
2023-02-19T02:11:36.619Z,7.43
2023-02-19T02:16:54.949Z,7.41
2023-02-19T02:22:06.705Z,7.37
2023-02-19T02:27:23.117Z,7.33
2023-02-19T02:32:33.214Z,7.35
2023-02-19T02:37:39.011Z,7.30
2023-02-19T02:42:43.861Z,7.28
2023-02-19T02:47:56.517Z,7.32
2023-02-19T02:53:35.820Z,7.34
2023-02-19T02:58:45.689Z,7.34
2023-02-19T03:03:55.142Z,7.35
2023-02-19T03:09:09.540Z,7.37
2023-02-19T03:14:44.679Z,7.40
2023-02-19T03:19:52.911Z,7.41
2023-02-19T03:25:25.914Z,7.45
2023-02-19T03:30:33.890Z,7.49
2023-02-19T03:35:50.045Z,7.48
2023-02-19T03:41:14.558Z,7.49
2023-02-19T03:46:24.088Z,7.51
2023-02-19T03:51:45.147Z,7.53
2023-02-19T03:57:05.298Z,7.51
2023-02-19T04:02:37.145Z,7.51
2023-02-19T04:07:44.651Z,7.50
2023-02-19T04:13:00.193Z,7.52
2023-02-19T04:18:08.648Z,7.49
2023-02-19T04:23:16.912Z,7.45
2023-02-19T04:28:19.495Z,7.42
2023-02-19T04:33:22.104Z,7.42
2023-02-19T04:38:24.473Z,7.41
2023-02-19T04:43:29.742Z,7.36
2023-02-19T04:48:32.673Z,7.32
2023-02-19T04:53:36.437Z,7.31
2023-02-19T04:58:39.109Z,7.32
2023-02-19T05:03:41.732Z,7.33
2023-02-19T05:08:44.428Z,7.35
2023-02-19T05:13:46.619Z,7.44
2023-02-19T05:18:48.980Z,7.52
2023-02-19T05:23:51.253Z,7.61
2023-02-19T05:28:54.463Z,7.61
2023-02-19T05:33:56.958Z,7.62
2023-02-19T05:38:58.984Z,7.61
2023-02-19T05:44:01.405Z,7.61
2023-02-19T05:49:04.299Z,7.69
2023-02-19T05:54:06.347Z,7.76
2023-02-19T05:59:15.184Z,7.79
2023-02-19T06:04:19.275Z,7.78
2023-02-19T06:09:21.519Z,7.77
2023-02-19T06:14:23.597Z,7.76
2023-02-19T06:19:26.158Z,7.80
2023-02-19T06:24:28.247Z,7.84
2023-02-19T06:29:32.621Z,7.77
2023-02-19T06:34:36.234Z,7.71
2023-02-19T06:39:38.498Z,7.66
2023-02-19T06:44:41.716Z,7.63
2023-02-19T06:49:45.092Z,7.72
2023-02-19T06:54:47.506Z,7.80
2023-02-19T06:59:50.490Z,7.82
2023-02-19T07:04:52.698Z,7.75
2023-02-19T07:09:56.500Z,7.70
2023-02-19T07:15:01.644Z,7.79
2023-02-19T07:20:04.313Z,7.90
2023-02-19T07:25:07.098Z,8.01
2023-02-19T07:30:10.602Z,8.12
2023-02-19T07:35:13.174Z,8.16
2023-02-19T07:40:15.215Z,8.15
2023-02-19T07:45:17.903Z,8.18
2023-02-19T07:50:20.367Z,8.18
2023-02-19T07:55:25.342Z,8.18
2023-02-19T08:00:29.656Z,8.19
2023-02-19T08:05:38.504Z,8.22
2023-02-19T08:11:00.533Z,8.37
2023-02-19T08:16:15.982Z,8.49
2023-02-19T08:21:21.190Z,8.63
2023-02-19T08:26:23.841Z,8.74
2023-02-19T08:31:27.259Z,8.80
2023-02-19T08:36:30.407Z,8.76
2023-02-19T08:41:32.897Z,8.79
2023-02-19T08:46:35.046Z,8.79
2023-02-19T08:51:42.120Z,8.75
2023-02-19T08:56:44.511Z,8.72
2023-02-19T09:01:46.840Z,8.57
2023-02-19T09:06:49.210Z,8.47
2023-02-19T09:11:51.189Z,8.45
2023-02-19T09:16:53.644Z,8.48
2023-02-19T09:21:56.116Z,8.45
2023-02-19T09:27:01.100Z,8.24
2023-02-19T09:32:05.789Z,8.04
2023-02-19T09:37:08.663Z,7.77
2023-02-19T09:42:18.004Z,7.57
2023-02-19T09:47:29.556Z,7.50
2023-02-19T09:52:38.827Z,7.41
2023-02-19T09:57:43.630Z,7.31
2023-02-19T10:02:45.893Z,7.32
2023-02-19T10:07:51.287Z,7.24
2023-02-19T10:12:56.797Z,7.18
2023-02-19T10:17:59.044Z,7.21
2023-02-19T10:23:08.054Z,7.24
2023-02-19T10:28:23.337Z,7.04
2023-02-19T10:33:25.739Z,6.92
2023-02-19T10:38:38.412Z,6.86
2023-02-19T10:43:45.797Z,6.81
2023-02-19T10:49:00.621Z,6.79
2023-02-19T10:54:28.866Z,6.66
2023-02-19T10:59:58.238Z,6.67
2023-02-19T11:05:16.912Z,6.83
2023-02-19T11:10:39.959Z,6.97
2023-02-19T11:15:43.683Z,6.95
2023-02-19T11:21:00.972Z,6.75
2023-02-19T11:26:06.969Z,6.66
2023-02-19T11:31:23.557Z,6.54
2023-02-19T11:36:30.487Z,6.58
2023-02-19T11:41:58.562Z,6.62
2023-02-19T11:47:13.292Z,6.50
2023-02-19T11:52:29.057Z,6.36
2023-02-19T11:57:41.855Z,6.24
2023-02-19T12:03:06.400Z,6.23
2023-02-19T12:08:35.768Z,6.09
2023-02-19T12:13:59.438Z,6.06
2023-02-19T12:19:27.681Z,5.98
2023-02-19T12:25:06.252Z,5.90
2023-02-19T12:30:19.426Z,5.63
2023-02-19T12:35:43.182Z,5.43
2023-02-19T12:40:51.262Z,5.40
2023-02-19T12:45:58.999Z,5.27
2023-02-19T12:51:23.414Z,5.14
2023-02-19T12:56:53.705Z,4.95
2023-02-19T13:02:08.107Z,4.85
2023-02-19T13:07:33.777Z,4.76
2023-02-19T13:12:44.901Z,4.82
2023-02-19T13:17:51.404Z,4.88
2023-02-19T13:23:41.022Z,4.83
2023-02-19T13:29:06.913Z,4.73
2023-02-19T13:34:22.641Z,4.64
2023-02-19T13:39:25.327Z,4.64
2023-02-19T13:44:31.058Z,4.63
2023-02-19T13:49:36.185Z,4.65
2023-02-19T13:54:42.652Z,4.60
2023-02-19T13:59:45.411Z,4.51
2023-02-19T14:04:51.844Z,4.50
2023-02-19T14:09:55.005Z,4.45
2023-02-19T14:15:41.593Z,4.61
2023-02-19T14:20:45.545Z,4.75
2023-02-19T14:26:01.286Z,4.81
2023-02-19T14:31:11.959Z,4.85
2023-02-19T14:36:20.483Z,4.76
2023-02-19T14:41:24.760Z,4.58
2023-02-19T14:46:43.318Z,4.55
2023-02-19T14:51:51.635Z,4.50
2023-02-19T14:56:54.826Z,4.44
2023-02-19T15:02:15.299Z,4.39
2023-02-19T15:07:34.751Z,4.41
2023-02-19T15:13:01.523Z,4.34
2023-02-19T15:18:05.612Z,4.32
2023-02-19T15:23:08.260Z,4.34
2023-02-19T15:28:26.541Z,4.30
2023-02-19T15:33:29.566Z,4.25
2023-02-19T15:38:33.890Z,4.15
2023-02-19T15:43:49.912Z,4.06
2023-02-19T15:49:02.454Z,3.98
2023-02-19T15:54:47.391Z,3.93
2023-02-19T16:00:13.464Z,3.88
2023-02-19T16:05:27.572Z,3.82
2023-02-19T16:10:32.695Z,3.76
2023-02-19T16:15:40.386Z,3.66
2023-02-19T16:20:47.881Z,3.54
2023-02-19T16:26:01.519Z,3.48
2023-02-19T16:31:05.106Z,3.44
2023-02-19T16:36:42.541Z,3.44
2023-02-19T16:41:47.554Z,3.44
2023-02-19T16:46:52.211Z,3.44
2023-02-19T16:51:54.687Z,3.45
2023-02-19T16:56:56.870Z,3.52
2023-02-19T17:02:05.590Z,3.52
2023-02-19T17:07:09.527Z,3.55
2023-02-19T17:12:14.396Z,3.57
2023-02-19T17:17:16.468Z,3.63
2023-02-19T17:22:19.236Z,3.69
2023-02-19T17:27:21.557Z,3.71
2023-02-19T17:32:23.608Z,3.72
2023-02-19T17:37:26.490Z,3.70
2023-02-19T17:42:28.272Z,3.68
2023-02-19T17:47:30.530Z,3.67
2023-02-19T17:52:33.672Z,3.61
2023-02-19T17:57:36.550Z,3.46
2023-02-19T18:02:39.429Z,3.34
2023-02-19T18:07:51.380Z,3.24
2023-02-19T18:12:55.945Z,3.07
2023-02-19T18:18:00.939Z,2.96
2023-02-19T18:23:02.990Z,2.85
2023-02-19T18:28:05.475Z,2.75
2023-02-19T18:33:10.894Z,2.62
2023-02-19T18:38:13.721Z,2.57
2023-02-19T18:43:16.820Z,2.49
2023-02-19T18:48:19.410Z,2.41
2023-02-19T18:53:22.105Z,2.32
2023-02-19T18:58:28.493Z,2.25
2023-02-19T19:03:32.445Z,2.09
2023-02-19T19:08:35.132Z,2.00
2023-02-19T19:13:37.917Z,1.98
2023-02-19T19:18:39.878Z,1.88
2023-02-19T19:23:42.617Z,1.76
2023-02-19T19:28:45.317Z,1.72
2023-02-19T19:33:48.584Z,1.70
2023-02-19T19:38:50.853Z,1.65
2023-02-19T19:43:52.861Z,1.64
2023-02-19T19:48:55.914Z,1.65
2023-02-19T19:53:58.419Z,1.66
2023-02-19T19:59:00.285Z,1.64
2023-02-19T20:04:08.363Z,1.69
2023-02-19T20:09:10.571Z,1.77
2023-02-19T20:14:13.965Z,1.87
2023-02-19T20:19:17.790Z,1.95
2023-02-19T20:24:24.598Z,2.00
2023-02-19T20:29:29.057Z,2.14
2023-02-19T20:34:31.719Z,2.15
2023-02-19T20:39:35.464Z,2.20
2023-02-19T20:44:37.840Z,2.22
2023-02-19T20:49:45.754Z,2.27
2023-02-19T20:54:48.225Z,2.30
2023-02-19T20:59:50.688Z,2.38
2023-02-19T21:04:52.723Z,2.40
2023-02-19T21:09:57.803Z,2.44
2023-02-19T21:15:05.230Z,2.44
2023-02-19T21:20:08.479Z,2.47
2023-02-19T21:25:10.850Z,2.48
2023-02-19T21:30:12.955Z,2.46
2023-02-19T21:35:15.279Z,2.40
2023-02-19T21:40:39.255Z,2.37
2023-02-19T21:45:43.132Z,2.36
2023-02-19T21:50:45.927Z,2.35
2023-02-19T21:55:58.139Z,2.30
2023-02-19T22:01:01.791Z,2.27
2023-02-19T22:06:04.907Z,2.20
2023-02-19T22:11:07.403Z,2.10
2023-02-19T22:16:09.904Z,2.08
2023-02-19T22:21:12.310Z,2.06
2023-02-19T22:26:18.737Z,2.01
2023-02-19T22:31:25.021Z,1.96
2023-02-19T22:36:31.172Z,1.91
2023-02-19T22:41:33.893Z,1.86
2023-02-19T22:46:36.429Z,1.79
2023-02-19T22:51:39.143Z,1.73
2023-02-19T22:56:41.594Z,1.67
2023-02-19T23:01:43.539Z,1.67
2023-02-19T23:06:45.955Z,1.68
2023-02-19T23:11:48.496Z,1.67
2023-02-19T23:16:50.783Z,1.68
2023-02-19T23:22:07.777Z,1.67
2023-02-19T23:27:10.195Z,1.73
2023-02-19T23:32:12.524Z,1.75
2023-02-19T23:37:15.123Z,1.83
2023-02-19T23:42:20.372Z,1.87
2023-02-19T23:47:45.676Z,1.87
2023-02-19T23:52:48.963Z,1.93
2023-02-19T23:57:53.256Z,1.86
